createdAt,value
2023-05-01T00:01:00.791Z,101869.75
2023-05-01T00:02:02.421Z,101868.91
2023-05-01T00:03:04.210Z,101867.97
2023-05-01T00:04:06.268Z,101861.03
2023-05-01T00:05:08.615Z,101868.81
2023-05-01T00:06:10.808Z,101867.94
2023-05-01T00:07:12.626Z,101863.53
2023-05-01T00:08:14.406Z,101863.53
2023-05-01T00:09:16.589Z,101862.63
2023-05-01T00:10:19.433Z,101861.78
2023-05-01T00:11:20.985Z,101851.34
2023-05-01T00:12:23.662Z,101860.00
2023-05-01T00:13:25.412Z,101866.09
2023-05-01T00:14:28.311Z,101857.38
2023-05-01T00:15:31.296Z,101865.16
2023-05-01T00:16:33.055Z,101859.03
2023-05-01T00:17:35.006Z,101863.31
2023-05-01T00:18:37.041Z,101858.09
2023-05-01T00:19:38.606Z,101858.88
2023-05-01T00:20:40.288Z,101856.25
2023-05-01T00:21:42.427Z,101851.00
2023-05-01T00:22:44.010Z,101851.88
2023-05-01T00:23:45.663Z,101850.94
2023-05-01T00:24:49.198Z,101847.47
2023-05-01T00:25:50.880Z,101848.31
2023-05-01T00:26:52.747Z,101846.53
2023-05-01T00:27:54.595Z,101849.09
2023-05-01T00:28:56.265Z,101846.47
2023-05-01T00:29:58.075Z,101843.84
2023-05-01T00:30:59.980Z,101841.16
2023-05-01T00:32:01.961Z,101835.94
2023-05-01T00:33:03.779Z,101840.25
2023-05-01T00:34:06.197Z,101833.28
2023-05-01T00:35:08.258Z,101842.78
2023-05-01T00:36:10.652Z,101834.06
2023-05-01T00:37:12.245Z,101832.28
2023-05-01T00:38:13.844Z,101834.00
2023-05-01T00:39:16.623Z,101833.06
2023-05-01T00:40:18.588Z,101834.78
2023-05-01T00:41:21.247Z,101834.78
2023-05-01T00:42:22.876Z,101833.00
2023-05-01T00:43:25.027Z,101836.47
2023-05-01T00:44:26.943Z,101830.41
2023-05-01T00:45:28.732Z,101833.00
2023-05-01T00:46:32.239Z,101826.03
2023-05-01T00:47:37.940Z,101827.75
2023-05-01T00:48:39.822Z,101820.78
2023-05-01T00:49:43.702Z,101825.97
2023-05-01T00:50:46.138Z,101823.38
2023-05-01T00:51:53.362Z,101818.16
2023-05-01T00:52:55.494Z,101821.59
2023-05-01T00:54:00.255Z,101824.16
2023-05-01T00:55:02.003Z,101822.38
2023-05-01T00:56:04.451Z,101823.22
2023-05-01T00:57:06.877Z,101818.88
2023-05-01T00:58:10.530Z,101817.13
2023-05-01T00:59:12.571Z,101822.28
2023-05-01T01:00:14.952Z,101822.28
2023-05-01T01:01:17.492Z,101821.34
2023-05-01T01:02:19.223Z,101819.63
2023-05-01T01:03:21.386Z,101813.56
2023-05-01T01:04:23.385Z,101818.75
2023-05-01T01:05:28.341Z,101818.75
2023-05-01T01:06:51.286Z,101813.53
2023-05-01T01:08:05.235Z,101814.38
2023-05-01T01:09:38.768Z,101813.50
2023-05-01T01:10:51.020Z,101815.13
2023-05-01T01:12:12.554Z,101806.41
2023-05-01T01:13:25.765Z,101810.66
2023-05-01T01:14:35.594Z,101814.03
2023-05-01T01:15:47.103Z,101809.66
2023-05-01T01:16:57.471Z,101810.44
2023-05-01T01:18:09.282Z,101809.47
2023-05-01T01:19:49.320Z,101807.69
2023-05-01T01:21:08.838Z,101805.03
2023-05-01T01:22:15.552Z,101799.78
2023-05-01T01:23:42.147Z,101805.78
2023-05-01T01:25:00.516Z,101794.47
2023-05-01T01:26:07.178Z,101792.72
2023-05-01T01:27:27.081Z,101798.72
2023-05-01T01:29:04.700Z,101799.56
2023-05-01T01:30:18.222Z,101793.44
2023-05-01T01:31:50.639Z,101801.19
2023-05-01T01:33:04.743Z,101796.81
2023-05-01T01:34:15.084Z,101795.91
2023-05-01T01:35:24.707Z,101798.53
2023-05-01T01:36:56.022Z,101788.97
2023-05-01T01:38:15.792Z,101798.44
2023-05-01T01:39:37.865Z,101794.94
2023-05-01T01:40:50.420Z,101792.31
2023-05-01T01:41:54.063Z,101795.75
2023-05-01T01:43:02.483Z,101794.03
2023-05-01T01:44:09.790Z,101794.91
2023-05-01T01:45:37.586Z,101787.97
2023-05-01T01:46:41.278Z,101788.84
2023-05-01T01:47:44.928Z,101787.94
2023-05-01T01:48:49.877Z,101787.06
2023-05-01T01:49:53.685Z,101787.06
2023-05-01T01:50:59.276Z,101786.25
2023-05-01T01:52:04.026Z,101782.81
2023-05-01T01:53:08.585Z,101788.88
2023-05-01T01:54:13.292Z,101786.28
2023-05-01T01:55:16.764Z,101783.69
2023-05-01T01:56:21.523Z,101783.69
2023-05-01T01:57:25.099Z,101775.91
2023-05-01T01:58:29.401Z,101781.16
2023-05-01T01:59:33.804Z,101779.44
2023-05-01T02:00:39.039Z,101779.44
2023-05-01T02:01:42.247Z,101780.28
2023-05-01T02:02:44.909Z,101781.16
2023-05-01T02:03:47.828Z,101778.56
2023-05-01T02:04:51.645Z,101776.84
2023-05-01T02:05:56.603Z,101775.09
2023-05-01T02:07:00.009Z,101775.06
2023-05-01T02:08:04.135Z,101776.81
2023-05-01T02:09:07.626Z,101775.06
2023-05-01T02:10:12.925Z,101773.28
2023-05-01T02:11:17.071Z,101768.97
2023-05-01T02:12:21.009Z,101768.91
2023-05-01T02:13:24.637Z,101765.44
2023-05-01T02:14:27.566Z,101768.03
2023-05-01T02:15:30.480Z,101763.69
2023-05-01T02:16:35.991Z,101764.56
2023-05-01T02:17:41.298Z,101766.28
2023-05-01T02:18:46.318Z,101766.28
2023-05-01T02:19:49.247Z,101765.44
2023-05-01T02:20:52.070Z,101758.50
2023-05-01T02:21:57.434Z,101762.00
2023-05-01T02:23:00.009Z,101762.00
2023-05-01T02:24:02.448Z,101764.59
2023-05-01T02:25:04.918Z,101762.84
2023-05-01T02:26:10.793Z,101757.63
2023-05-01T02:27:24.980Z,101756.69
2023-05-01T02:28:30.212Z,101754.06
2023-05-01T02:29:32.064Z,101761.00
2023-05-01T02:30:33.690Z,101755.78
2023-05-01T02:31:35.517Z,101757.56
2023-05-01T02:32:37.886Z,101753.19
2023-05-01T02:33:39.749Z,101744.56
2023-05-01T02:34:42.231Z,101753.19
2023-05-01T02:35:44.722Z,101744.50
2023-05-01T02:36:46.461Z,101743.56
2023-05-01T02:37:48.408Z,101744.44
2023-05-01T02:38:51.320Z,101745.25
2023-05-01T02:39:53.253Z,101741.78
2023-05-01T02:40:58.075Z,101738.31
2023-05-01T02:42:03.228Z,101731.34
2023-05-01T02:43:09.182Z,101738.25
2023-05-01T02:44:13.203Z,101729.56
2023-05-01T02:45:19.870Z,101733.84
2023-05-01T02:46:24.330Z,101729.53
2023-05-01T02:47:27.701Z,101732.13
2023-05-01T02:48:32.706Z,101732.97
2023-05-01T02:49:35.362Z,101727.78
2023-05-01T02:50:40.634Z,101729.50
2023-05-01T02:51:43.440Z,101730.34
2023-05-01T02:52:46.469Z,101721.72
2023-05-01T02:54:11.104Z,101724.31
2023-05-01T02:55:13.059Z,101720.81
2023-05-01T02:56:14.843Z,101721.69
2023-05-01T02:57:18.096Z,101715.56
2023-05-01T02:58:21.022Z,101724.22
2023-05-01T02:59:22.659Z,101721.63
2023-05-01T03:00:24.480Z,101717.31
2023-05-01T03:01:26.273Z,101710.38
2023-05-01T03:02:27.993Z,101712.13
2023-05-01T03:03:29.651Z,101714.69
2023-05-01T03:04:31.507Z,101713.84
2023-05-01T03:05:33.143Z,101713.00
2023-05-01T03:06:34.894Z,101718.19
2023-05-01T03:07:37.028Z,101710.41
2023-05-01T03:08:38.817Z,101708.66
2023-05-01T03:09:40.483Z,101707.81
2023-05-01T03:10:43.246Z,101710.44
2023-05-01T03:11:44.939Z,101709.56
2023-05-01T03:12:46.779Z,101710.41
2023-05-01T03:13:48.774Z,101705.19
2023-05-01T03:14:50.909Z,101703.44
2023-05-01T03:15:53.196Z,101701.72
2023-05-01T03:16:56.015Z,101707.72
2023-05-01T03:17:57.748Z,101703.41
2023-05-01T03:18:59.605Z,101702.53
2023-05-01T03:20:01.400Z,101701.66
2023-05-01T03:21:03.053Z,101698.19
2023-05-01T03:22:04.967Z,101702.50
2023-05-01T03:23:07.652Z,101700.75
2023-05-01T03:24:10.176Z,101699.00
2023-05-01T03:25:11.844Z,101698.13
2023-05-01T03:26:13.748Z,101699.91
2023-05-01T03:27:15.705Z,101699.91
2023-05-01T03:28:17.558Z,101694.66
2023-05-01T03:29:19.820Z,101692.94
2023-05-01T03:30:21.937Z,101695.53
2023-05-01T03:31:24.882Z,101691.19
2023-05-01T03:32:29.469Z,101692.94
2023-05-01T03:33:32.305Z,101691.19
2023-05-01T03:34:34.313Z,101691.19
2023-05-01T03:35:39.006Z,101697.25
2023-05-01T03:36:41.590Z,101687.72
2023-05-01T03:37:45.951Z,101684.25
2023-05-01T03:38:56.276Z,101689.44
2023-05-01T03:40:21.786Z,101685.97
2023-05-01T03:41:42.020Z,101691.13
2023-05-01T03:42:54.045Z,101685.94
2023-05-01T03:43:58.394Z,101684.19
2023-05-01T03:45:19.657Z,101688.50
2023-05-01T03:46:21.855Z,101685.00
2023-05-01T03:47:23.911Z,101675.53
2023-05-01T03:48:25.649Z,101682.41
2023-05-01T03:49:28.510Z,101683.28
2023-05-01T03:50:30.458Z,101678.94
2023-05-01T03:51:32.574Z,101682.41
2023-05-01T03:52:34.758Z,101682.41
2023-05-01T03:53:39.425Z,101683.28
2023-05-01T03:54:42.927Z,101678.94
2023-05-01T03:56:04.223Z,101676.31
2023-05-01T03:57:06.295Z,101674.59
2023-05-01T03:58:09.197Z,101672.03
2023-05-01T03:59:11.544Z,101672.94
2023-05-01T04:00:13.694Z,101674.63
2023-05-01T04:01:20.723Z,101670.34
2023-05-01T04:02:23.181Z,101666.84
2023-05-01T04:03:25.475Z,101675.53
2023-05-01T04:04:29.974Z,101671.19
2023-05-01T04:05:33.611Z,101668.63
2023-05-01T04:06:37.553Z,101670.41
2023-05-01T04:07:41.467Z,101662.69
2023-05-01T04:08:43.336Z,101664.50
2023-05-01T04:09:45.135Z,101658.63
2023-05-01T04:10:47.825Z,101660.59
2023-05-01T04:11:49.699Z,101659.97
2023-05-01T04:12:51.889Z,101661.16
2023-05-01T04:13:54.056Z,101658.81
2023-05-01T04:14:55.813Z,101653.84
2023-05-01T04:15:59.574Z,101655.00
2023-05-01T04:17:02.620Z,101652.66
2023-05-01T04:18:07.955Z,101647.69
2023-05-01T04:19:10.313Z,101644.47
2023-05-01T04:20:17.024Z,101644.69
2023-05-01T04:21:18.982Z,101640.50
2023-05-01T04:22:24.915Z,101647.59
2023-05-01T04:23:27.280Z,101641.56
2023-05-01T04:24:32.707Z,101640.66
2023-05-01T04:25:34.634Z,101640.59
2023-05-01T04:26:42.687Z,101642.22
2023-05-01T04:27:44.799Z,101641.22
2023-05-01T04:28:47.712Z,101636.75
2023-05-01T04:29:52.777Z,101638.38
2023-05-01T04:30:54.483Z,101640.03
2023-05-01T04:31:56.540Z,101640.78
2023-05-01T04:33:02.153Z,101633.75
2023-05-01T04:34:04.564Z,101637.13
2023-05-01T04:35:06.834Z,101636.22
2023-05-01T04:36:08.503Z,101636.13
2023-05-01T04:37:10.622Z,101638.66
2023-05-01T04:38:12.538Z,101631.69
2023-05-01T04:39:16.968Z,101635.09
2023-05-01T04:40:18.784Z,101632.50
2023-05-01T04:41:21.559Z,101618.66
2023-05-01T04:42:23.598Z,101629.03
2023-05-01T04:43:25.975Z,101622.97
2023-05-01T04:44:27.986Z,101624.69
2023-05-01T04:45:30.341Z,101626.44
2023-05-01T04:46:32.042Z,101629.91
2023-05-01T04:47:33.815Z,101623.84
2023-05-01T04:48:36.479Z,101626.47
2023-05-01T04:49:38.058Z,101628.16
2023-05-01T04:50:39.908Z,101621.25
2023-05-01T04:51:42.171Z,101620.41
2023-05-01T04:52:47.238Z,101619.56
2023-05-01T04:53:49.019Z,101619.56
2023-05-01T04:54:57.946Z,101620.47
2023-05-01T04:56:01.788Z,101625.72
2023-05-01T04:57:05.281Z,101614.47
2023-05-01T04:58:07.310Z,101612.75
2023-05-01T04:59:10.843Z,101614.53
2023-05-01T05:00:12.891Z,101623.22
2023-05-01T05:01:24.682Z,101618.91
2023-05-01T05:02:27.122Z,101618.94
2023-05-01T05:03:29.027Z,101613.75
2023-05-01T05:04:30.694Z,101615.53
2023-05-01T05:05:32.749Z,101624.25
2023-05-01T05:06:35.095Z,101619.94
2023-05-01T05:07:42.794Z,101618.28
2023-05-01T05:09:04.149Z,101616.56
2023-05-01T05:10:06.956Z,101622.69
2023-05-01T05:11:09.827Z,101618.38
2023-05-01T05:12:34.860Z,101622.75
2023-05-01T05:13:37.138Z,101625.44
2023-05-01T05:14:45.843Z,101623.72
2023-05-01T05:15:48.200Z,101621.16
2023-05-01T05:16:51.702Z,101622.94
2023-05-01T05:17:56.371Z,101624.72
2023-05-01T05:18:58.732Z,101621.31
2023-05-01T05:20:02.665Z,101623.13
2023-05-01T05:21:05.771Z,101618.00
2023-05-01T05:22:07.718Z,101625.84
2023-05-01T05:23:21.724Z,101620.69
2023-05-01T05:24:23.569Z,101621.59
2023-05-01T05:25:25.302Z,101625.13
2023-05-01T05:26:27.889Z,101625.19
2023-05-01T05:27:37.804Z,101620.91
2023-05-01T05:28:40.961Z,101622.69
2023-05-01T05:29:43.019Z,101620.97
2023-05-01T05:30:47.022Z,101622.78
2023-05-01T05:31:52.171Z,101622.84
2023-05-01T05:32:53.909Z,101622.03
2023-05-01T05:33:57.080Z,101618.59
2023-05-01T05:34:58.979Z,101615.19
2023-05-01T05:36:02.126Z,101614.38
2023-05-01T05:37:09.993Z,101624.00
2023-05-01T05:38:20.893Z,101612.75
2023-05-01T05:39:26.771Z,101606.78
2023-05-01T05:40:28.867Z,101605.94
2023-05-01T05:41:32.832Z,101602.53
2023-05-01T05:42:37.171Z,101607.84
2023-05-01T05:43:41.273Z,101598.31
2023-05-01T05:44:43.783Z,101594.91
2023-05-01T05:45:47.044Z,101598.41
2023-05-01T05:46:48.924Z,101600.22
2023-05-01T05:47:59.898Z,101603.72
2023-05-01T05:49:03.026Z,101608.97
2023-05-01T05:50:07.446Z,101605.50
2023-05-01T05:51:09.463Z,101610.78
2023-05-01T05:52:11.517Z,101606.44
2023-05-01T05:53:13.971Z,101606.47
2023-05-01T05:54:17.858Z,101608.22
2023-05-01T05:55:21.065Z,101608.22
2023-05-01T05:56:35.859Z,101616.09
2023-05-01T05:57:37.844Z,101607.41
2023-05-01T05:58:41.945Z,101607.47
2023-05-01T05:59:45.032Z,101608.34
2023-05-01T06:00:50.563Z,101610.97
2023-05-01T06:01:53.019Z,101604.00
2023-05-01T06:02:58.358Z,101603.16
2023-05-01T06:04:02.520Z,101607.50
2023-05-01T06:05:06.235Z,101601.41
2023-05-01T06:06:08.174Z,101602.28
2023-05-01T06:07:10.512Z,101601.41
2023-05-01T06:08:12.917Z,101598.78
2023-05-01T06:09:15.386Z,101597.03
2023-05-01T06:10:18.257Z,101592.66
2023-05-01T06:11:21.923Z,101590.91
2023-05-01T06:12:24.523Z,101584.81
2023-05-01T06:13:28.902Z,101591.75
2023-05-01T06:14:30.771Z,101586.47
2023-05-01T06:15:32.481Z,101579.47
2023-05-01T06:16:35.896Z,101580.34
2023-05-01T06:17:37.852Z,101574.22
2023-05-01T06:18:40.763Z,101585.53
2023-05-01T06:19:42.445Z,101583.75
2023-05-01T06:20:47.201Z,101577.59
2023-05-01T06:21:48.893Z,101581.94
2023-05-01T06:22:50.678Z,101581.03
2023-05-01T06:23:57.297Z,101579.22
2023-05-01T06:25:04.391Z,101574.84
2023-05-01T06:26:08.025Z,101577.44
2023-05-01T06:27:10.516Z,101581.72
2023-05-01T06:28:12.495Z,101577.34
2023-05-01T06:29:14.392Z,101580.75
2023-05-01T06:30:16.907Z,101576.38
2023-05-01T06:31:18.640Z,101578.94
2023-05-01T06:32:25.614Z,101569.28
2023-05-01T06:33:27.871Z,101575.38
2023-05-01T06:34:50.066Z,101568.34
2023-05-01T06:35:54.910Z,101570.06
2023-05-01T06:36:57.385Z,101570.94
2023-05-01T06:38:00.289Z,101569.13
2023-05-01T06:39:02.073Z,101558.63
2023-05-01T06:40:10.465Z,101559.47
2023-05-01T06:41:12.944Z,101557.72
2023-05-01T06:42:17.419Z,101562.03
2023-05-01T06:43:19.893Z,101560.25
2023-05-01T06:44:22.462Z,101552.34
2023-05-01T06:45:24.128Z,101556.69
2023-05-01T06:46:26.005Z,101551.41
2023-05-01T06:47:27.954Z,101554.00
2023-05-01T06:48:31.746Z,101555.72
2023-05-01T06:49:33.997Z,101553.94
2023-05-01T06:50:36.330Z,101546.97
2023-05-01T06:51:38.430Z,101559.16
2023-05-01T06:52:41.667Z,101556.50
2023-05-01T06:53:43.515Z,101556.44
2023-05-01T06:54:45.629Z,101557.25
2023-05-01T06:55:47.491Z,101548.44
2023-05-01T06:56:49.276Z,101557.16
2023-05-01T06:57:50.859Z,101552.78
2023-05-01T06:58:52.514Z,101549.25
2023-05-01T06:59:54.746Z,101557.09
2023-05-01T07:00:57.081Z,101548.28
2023-05-01T07:01:58.849Z,101549.06
2023-05-01T07:03:00.658Z,101545.50
2023-05-01T07:04:04.059Z,101536.69
2023-05-01T07:05:06.285Z,101534.84
2023-05-01T07:06:08.137Z,101537.38
2023-05-01T07:07:10.532Z,101542.53
2023-05-01T07:08:12.720Z,101537.22
2023-05-01T07:09:17.158Z,101536.25
2023-05-01T07:10:19.355Z,101529.16
2023-05-01T07:11:21.799Z,101528.19
2023-05-01T07:12:24.005Z,101522.81
2023-05-01T07:13:27.071Z,101523.63
2023-05-01T07:14:29.103Z,101527.88
2023-05-01T07:15:30.990Z,101515.53
2023-05-01T07:16:32.804Z,101522.44
2023-05-01T07:17:35.619Z,101517.06
2023-05-01T07:18:37.878Z,101523.97
2023-05-01T07:19:39.828Z,101512.47
2023-05-01T07:20:42.026Z,101522.00
2023-05-01T07:21:44.472Z,101514.06
2023-05-01T07:22:46.393Z,101519.22
2023-05-01T07:23:47.997Z,101509.56
2023-05-01T07:24:49.672Z,101519.13
2023-05-01T07:25:51.928Z,101520.78
2023-05-01T07:26:53.565Z,101518.03
2023-05-01T07:27:55.341Z,101514.47
2023-05-01T07:28:57.055Z,101517.94
2023-05-01T07:30:00.689Z,101512.63
2023-05-01T07:31:02.459Z,101514.38
2023-05-01T07:32:05.988Z,101514.34
2023-05-01T07:33:07.840Z,101509.00
2023-05-01T07:34:09.608Z,101505.38
2023-05-01T07:35:11.271Z,101504.44
2023-05-01T07:36:13.100Z,101506.13
2023-05-01T07:37:14.765Z,101500.81
2023-05-01T07:38:16.888Z,101501.63
2023-05-01T07:39:18.548Z,101504.25
2023-05-01T07:40:20.193Z,101498.94
2023-05-01T07:41:22.714Z,101500.59
2023-05-01T07:42:24.325Z,101496.13
2023-05-01T07:43:26.050Z,101504.78
2023-05-01T07:44:27.850Z,101497.72
2023-05-01T07:45:29.542Z,101494.97
2023-05-01T07:46:31.579Z,101495.75
2023-05-01T07:47:34.689Z,101497.41
2023-05-01T07:48:38.709Z,101489.44
2023-05-01T07:49:41.004Z,101495.47
2023-05-01T07:50:43.048Z,101489.34
2023-05-01T07:51:45.557Z,101487.53
2023-05-01T07:52:47.291Z,101487.50
2023-05-01T07:53:49.440Z,101487.44
2023-05-01T07:54:51.415Z,101489.91
2023-05-01T07:55:53.110Z,101486.28
2023-05-01T07:56:54.760Z,101485.38
2023-05-01T07:57:56.541Z,101483.59
2023-05-01T07:58:58.220Z,101484.38
2023-05-01T07:59:59.905Z,101477.34
2023-05-01T08:01:01.952Z,101481.63
2023-05-01T08:02:03.694Z,101476.25
2023-05-01T08:03:05.565Z,101472.63
2023-05-01T08:04:07.850Z,101474.31
2023-05-01T08:05:09.978Z,101466.38
2023-05-01T08:06:11.640Z,101468.09
2023-05-01T08:07:13.489Z,101468.78
2023-05-01T08:08:20.520Z,101466.84
2023-05-01T08:09:22.204Z,101466.66
2023-05-01T08:10:23.858Z,101463.88
2023-05-01T08:11:26.701Z,101465.50
2023-05-01T08:12:31.563Z,101463.63
2023-05-01T08:13:33.505Z,101463.50
2023-05-01T08:14:35.256Z,101465.13
2023-05-01T08:15:39.057Z,101470.28
2023-05-01T08:16:40.926Z,101465.75
2023-05-01T08:17:42.617Z,101475.41
2023-05-01T08:18:44.336Z,101464.91
2023-05-01T08:19:46.602Z,101470.09
2023-05-01T08:20:48.895Z,101454.22
2023-05-01T08:21:50.542Z,101458.56
2023-05-01T08:22:52.338Z,101459.34
2023-05-01T08:23:55.747Z,101457.50
2023-05-01T08:24:57.309Z,101459.09
2023-05-01T08:26:01.640Z,101462.44
2023-05-01T08:27:03.356Z,101456.22
2023-05-01T08:28:05.512Z,101458.81
2023-05-01T08:29:07.083Z,101458.72
2023-05-01T08:30:09.417Z,101459.47
2023-05-01T08:31:11.077Z,101455.00
2023-05-01T08:32:12.811Z,101459.28
2023-05-01T08:33:14.535Z,101458.41
2023-05-01T08:34:17.358Z,101467.97
2023-05-01T08:35:19.011Z,101457.38
2023-05-01T08:36:21.372Z,101459.97
2023-05-01T08:37:23.163Z,101462.56
2023-05-01T08:38:24.953Z,101457.31
2023-05-01T08:39:26.862Z,101453.75
2023-05-01T08:40:33.563Z,101452.84
2023-05-01T08:41:37.503Z,101458.06
2023-05-01T08:42:39.329Z,101459.72
2023-05-01T08:43:41.286Z,101455.22
2023-05-01T08:44:43.869Z,101457.88
2023-05-01T08:45:47.454Z,101458.72
2023-05-01T08:47:15.339Z,101457.03
2023-05-01T08:48:20.893Z,101458.81
2023-05-01T08:49:24.392Z,101456.09
2023-05-01T08:50:27.553Z,101448.16
2023-05-01T08:51:33.331Z,101451.78
2023-05-01T08:52:35.354Z,101443.81
2023-05-01T08:53:38.587Z,101441.06
2023-05-01T08:54:44.179Z,101440.94
2023-05-01T08:55:49.048Z,101445.22
2023-05-01T08:56:53.012Z,101438.97
2023-05-01T08:57:55.797Z,101436.13
2023-05-01T08:58:59.472Z,101434.22
2023-05-01T09:00:01.696Z,101426.13
2023-05-01T09:01:03.989Z,101427.78
2023-05-01T09:02:10.408Z,101434.66
2023-05-01T09:03:16.093Z,101426.50
2023-05-01T09:04:18.009Z,101423.72
2023-05-01T09:05:21.358Z,101426.28
2023-05-01T09:06:23.579Z,101419.19
2023-05-01T09:07:25.568Z,101418.13
2023-05-01T09:08:28.213Z,101420.53
2023-05-01T09:09:31.024Z,101414.19
2023-05-01T09:10:35.041Z,101404.34
2023-05-01T09:11:37.019Z,101408.63
2023-05-01T09:12:39.658Z,101406.78
2023-05-01T09:13:41.458Z,101407.59
2023-05-01T09:14:43.293Z,101411.97
2023-05-01T09:15:45.042Z,101411.88
2023-05-01T09:16:47.208Z,101403.81
2023-05-01T09:17:49.238Z,101397.50
2023-05-01T09:18:51.385Z,101398.22
2023-05-01T09:19:53.574Z,101408.69
2023-05-01T09:20:55.701Z,101394.44
2023-05-01T09:21:57.264Z,101399.50
2023-05-01T09:22:59.068Z,101395.81
2023-05-01T09:24:02.063Z,101394.78
2023-05-01T09:25:04.209Z,101393.75
2023-05-01T09:26:06.713Z,101391.06
2023-05-01T09:27:08.627Z,101397.19
2023-05-01T09:28:10.409Z,101396.22
2023-05-01T09:29:12.233Z,101397.00
2023-05-01T09:30:32.162Z,101391.75
2023-05-01T09:31:34.899Z,101389.88
2023-05-01T09:32:36.911Z,101387.06
2023-05-01T09:33:53.769Z,101388.66
2023-05-01T09:35:08.867Z,101390.41
2023-05-01T09:36:17.346Z,101384.94
2023-05-01T09:37:30.041Z,101381.28
2023-05-01T09:38:31.823Z,101385.47
2023-05-01T09:39:33.480Z,101383.47
2023-05-01T09:40:35.167Z,101382.38
2023-05-01T09:41:51.469Z,101377.75
2023-05-01T09:42:54.892Z,101378.44
2023-05-01T09:43:57.894Z,101376.47
2023-05-01T09:45:01.206Z,101371.06
2023-05-01T09:46:04.978Z,101380.59
2023-05-01T09:47:08.234Z,101373.34
2023-05-01T09:48:14.408Z,101373.09
2023-05-01T09:49:16.366Z,101369.25
2023-05-01T09:50:33.019Z,101374.34
2023-05-01T09:51:35.160Z,101368.97
2023-05-01T09:52:36.954Z,101371.41
2023-05-01T09:53:39.915Z,101373.16
2023-05-01T09:54:41.735Z,101377.41
2023-05-01T09:55:52.325Z,101374.75
2023-05-01T09:56:53.919Z,101373.84
2023-05-01T09:57:55.534Z,101367.56
2023-05-01T09:58:58.425Z,101372.78
2023-05-01T10:00:10.160Z,101370.91
2023-05-01T10:01:12.163Z,101361.97
2023-05-01T10:02:32.344Z,101353.97
2023-05-01T10:03:34.841Z,101352.31
2023-05-01T10:04:37.335Z,101356.75
2023-05-01T10:05:45.507Z,101358.34
2023-05-01T10:06:47.188Z,101356.53
2023-05-01T10:07:59.335Z,101345.09
2023-05-01T10:09:01.401Z,101354.63
2023-05-01T10:10:23.615Z,101359.75
2023-05-01T10:11:26.852Z,101353.59
2023-05-01T10:12:29.766Z,101354.56
2023-05-01T10:13:32.027Z,101346.63
2023-05-01T10:14:38.618Z,101357.16
2023-05-01T10:15:40.367Z,101354.44
2023-05-01T10:16:42.003Z,101355.34
2023-05-01T10:17:44.963Z,101351.84
2023-05-01T10:18:48.638Z,101348.41
2023-05-01T10:19:51.606Z,101351.19
2023-05-01T10:20:53.400Z,101344.97
2023-05-01T10:21:55.119Z,101344.19
2023-05-01T10:22:56.972Z,101338.00
2023-05-01T10:23:59.157Z,101343.22
2023-05-01T10:25:01.446Z,101344.81
2023-05-01T10:26:07.069Z,101337.75
2023-05-01T10:27:10.230Z,101337.81
2023-05-01T10:28:12.801Z,101342.09
2023-05-01T10:29:14.822Z,101339.41
2023-05-01T10:30:18.142Z,101339.34
2023-05-01T10:31:20.442Z,101341.84
2023-05-01T10:32:22.243Z,101340.81
2023-05-01T10:33:25.303Z,101331.91
2023-05-01T10:34:28.526Z,101331.75
2023-05-01T10:35:34.569Z,101335.13
2023-05-01T10:36:48.726Z,101332.16
2023-05-01T10:38:06.546Z,101331.84
2023-05-01T10:39:32.184Z,101329.09
2023-05-01T10:40:39.973Z,101327.22
2023-05-01T10:42:02.153Z,101320.19
2023-05-01T10:43:18.303Z,101323.66
2023-05-01T10:44:21.739Z,101323.50
2023-05-01T10:45:30.789Z,101310.84
2023-05-01T10:46:32.586Z,101319.66
2023-05-01T10:47:35.319Z,101317.81
2023-05-01T10:48:43.810Z,101309.91
2023-05-01T10:50:07.958Z,101308.88
2023-05-01T10:51:21.351Z,101304.25
2023-05-01T10:52:22.965Z,101305.75
2023-05-01T10:53:24.748Z,101305.50
2023-05-01T10:54:30.495Z,101306.94
2023-05-01T10:55:36.604Z,101306.13
2023-05-01T10:56:38.164Z,101297.88
2023-05-01T10:57:44.280Z,101301.41
2023-05-01T10:58:51.468Z,101292.44
2023-05-01T10:59:58.964Z,101299.31
2023-05-01T11:01:27.980Z,101300.09
2023-05-01T11:02:31.974Z,101295.66
2023-05-01T11:03:36.888Z,101295.59
2023-05-01T11:04:51.066Z,101292.00
2023-05-01T11:06:04.329Z,101290.28
2023-05-01T11:07:07.488Z,101292.00
2023-05-01T11:08:35.665Z,101286.06
2023-05-01T11:09:43.118Z,101285.81
2023-05-01T11:10:44.781Z,101295.28
2023-05-01T11:11:48.241Z,101286.09
2023-05-01T11:12:51.710Z,101275.34
2023-05-01T11:14:00.746Z,101280.38
2023-05-01T11:15:04.326Z,101281.88
2023-05-01T11:16:39.978Z,101279.22
2023-05-01T11:17:41.842Z,101281.97
2023-05-01T11:18:46.624Z,101279.31
2023-05-01T11:19:48.438Z,101277.50
2023-05-01T11:20:50.339Z,101276.56
2023-05-01T11:21:52.508Z,101273.84
2023-05-01T11:22:56.374Z,101280.78
2023-05-01T11:23:58.008Z,101270.91
2023-05-01T11:25:00.985Z,101261.91
2023-05-01T11:26:04.913Z,101279.44
2023-05-01T11:27:06.885Z,101272.47
2023-05-01T11:28:10.016Z,101270.75
2023-05-01T11:29:12.112Z,101276.13
2023-05-01T11:30:13.718Z,101259.19
2023-05-01T11:31:18.878Z,101262.38
2023-05-01T11:32:27.013Z,101261.16
2023-05-01T11:33:29.167Z,101256.63
2023-05-01T11:34:38.126Z,101256.63
2023-05-01T11:35:42.421Z,101251.00
2023-05-01T11:36:52.032Z,101243.56
2023-05-01T11:37:56.021Z,101244.03
2023-05-01T11:39:00.020Z,101247.16
2023-05-01T11:40:07.577Z,101239.91
2023-05-01T11:41:12.484Z,101240.44
2023-05-01T11:42:16.181Z,101240.19
2023-05-01T11:43:18.209Z,101234.63
2023-05-01T11:44:22.426Z,101243.47
2023-05-01T11:45:24.629Z,101239.94
2023-05-01T11:46:28.978Z,101236.81
2023-05-01T11:47:32.752Z,101231.41
2023-05-01T11:48:35.432Z,101233.94
2023-05-01T11:49:37.667Z,101240.09
2023-05-01T11:50:39.308Z,101230.31
2023-05-01T11:51:41.007Z,101233.69
2023-05-01T11:52:53.411Z,101231.03
2023-05-01T11:54:01.824Z,101233.69
2023-05-01T11:55:04.841Z,101227.19
2023-05-01T11:56:26.049Z,101225.25
2023-05-01T11:57:28.957Z,101226.03
2023-05-01T11:58:32.980Z,101227.44
2023-05-01T11:59:34.725Z,101219.22
2023-05-01T12:00:43.767Z,101224.09
2023-05-01T12:01:46.746Z,101220.06
2023-05-01T12:03:02.088Z,101221.41
2023-05-01T12:04:05.164Z,101218.38
2023-05-01T12:05:17.260Z,101221.47
2023-05-01T12:06:19.227Z,101211.78
2023-05-01T12:07:24.513Z,101216.06
2023-05-01T12:08:26.564Z,101211.53
2023-05-01T12:09:30.732Z,101212.47
2023-05-01T12:10:34.850Z,101208.69
2023-05-01T12:11:38.316Z,101208.44
2023-05-01T12:12:39.991Z,101204.75
2023-05-01T12:13:41.976Z,101202.09
2023-05-01T12:14:43.831Z,101204.94
2023-05-01T12:15:47.256Z,101208.63
2023-05-01T12:16:49.497Z,101201.28
2023-05-01T12:17:51.488Z,101207.22